createdAt,value
2023-02-03T00:00:13.227Z,81.54
2023-02-03T00:01:17.078Z,81.54
2023-02-03T00:02:20.122Z,81.64
2023-02-03T00:03:23.263Z,81.56
2023-02-03T00:04:26.020Z,81.33
2023-02-03T00:05:29.955Z,81.44
2023-02-03T00:06:33.576Z,81.60
2023-02-03T00:07:38.503Z,81.77
2023-02-03T00:08:41.702Z,81.47
2023-02-03T00:09:44.588Z,81.20
2023-02-03T00:10:47.740Z,81.30
2023-02-03T00:11:50.705Z,80.77
2023-02-03T00:12:54.142Z,80.71
2023-02-03T00:13:57.022Z,80.72
2023-02-03T00:14:59.988Z,80.56
2023-02-03T00:16:06.810Z,80.61
2023-02-03T00:17:09.746Z,80.17
2023-02-03T00:18:12.990Z,80.13
2023-02-03T00:19:17.527Z,79.25
2023-02-03T00:20:20.818Z,78.36
2023-02-03T00:21:24.101Z,78.45
2023-02-03T00:22:27.110Z,77.99
2023-02-03T00:23:32.417Z,77.94
2023-02-03T00:24:35.354Z,77.75
2023-02-03T00:25:39.360Z,77.90
2023-02-03T00:26:43.654Z,77.84
2023-02-03T00:27:51.196Z,77.11
2023-02-03T00:28:54.482Z,76.55
2023-02-03T00:29:57.341Z,76.23
2023-02-03T00:31:00.180Z,75.63
2023-02-03T00:32:04.585Z,73.77
2023-02-03T00:33:07.583Z,74.19
2023-02-03T00:34:10.778Z,73.59
2023-02-03T00:35:13.585Z,72.90
2023-02-03T00:36:16.420Z,72.27
2023-02-03T00:37:19.384Z,72.70
2023-02-03T00:38:23.233Z,72.78
2023-02-03T00:39:26.103Z,73.09
2023-02-03T00:40:30.204Z,73.48
2023-02-03T00:41:33.248Z,72.92
2023-02-03T00:42:36.342Z,72.94
2023-02-03T00:43:39.211Z,72.50
2023-02-03T00:44:42.071Z,72.43
2023-02-03T00:45:45.013Z,72.15
2023-02-03T00:46:48.261Z,72.14
2023-02-03T00:47:51.347Z,72.15
2023-02-03T00:48:54.289Z,72.07
2023-02-03T00:49:57.220Z,72.64
2023-02-03T00:51:00.120Z,71.61
2023-02-03T00:52:03.271Z,70.87
2023-02-03T00:53:10.145Z,70.72
2023-02-03T00:54:13.841Z,70.27
2023-02-03T00:55:16.841Z,70.17
2023-02-03T00:56:23.232Z,69.82
2023-02-03T00:57:26.090Z,69.77
2023-02-03T00:58:29.005Z,69.77
2023-02-03T00:59:32.082Z,68.85
2023-02-03T01:00:35.175Z,69.05
2023-02-03T01:01:38.325Z,69.34
2023-02-03T01:02:41.501Z,69.40
2023-02-03T01:03:44.712Z,69.69
2023-02-03T01:04:48.942Z,69.32
2023-02-03T01:05:51.880Z,69.70
2023-02-03T01:06:57.670Z,67.90
2023-02-03T01:08:01.948Z,67.81
2023-02-03T01:09:04.960Z,68.19
2023-02-03T01:10:08.611Z,67.83
2023-02-03T01:11:21.092Z,67.28
2023-02-03T01:12:24.783Z,67.34
2023-02-03T01:13:28.371Z,67.59
2023-02-03T01:14:31.848Z,67.40
2023-02-03T01:15:34.912Z,67.75
2023-02-03T01:16:38.932Z,68.16
2023-02-03T01:17:41.838Z,68.31
2023-02-03T01:18:45.361Z,68.22
2023-02-03T01:19:48.203Z,67.84
2023-02-03T01:20:51.146Z,67.77
2023-02-03T01:21:54.112Z,67.50
2023-02-03T01:22:57.850Z,67.63
2023-02-03T01:24:05.644Z,67.58
2023-02-03T01:25:09.521Z,67.93
2023-02-03T01:26:15.993Z,67.96
2023-02-03T01:27:18.946Z,67.81
2023-02-03T01:28:22.142Z,67.67
2023-02-03T01:29:25.385Z,67.80
2023-02-03T01:30:28.681Z,68.18
2023-02-03T01:31:49.732Z,67.86
2023-02-03T01:32:52.762Z,67.39
2023-02-03T01:33:56.501Z,67.50
2023-02-03T01:34:59.469Z,67.50
2023-02-03T01:36:02.746Z,67.84
2023-02-03T01:37:06.196Z,67.68
2023-02-03T01:38:09.178Z,67.58
2023-02-03T01:39:12.337Z,67.09
2023-02-03T01:40:15.251Z,66.68
2023-02-03T01:41:22.179Z,66.85
2023-02-03T01:42:25.246Z,67.04
2023-02-03T01:43:36.966Z,66.52
2023-02-03T01:44:49.549Z,66.68
2023-02-03T01:45:52.666Z,66.64
2023-02-03T01:46:56.567Z,66.87
2023-02-03T01:48:00.405Z,66.31
2023-02-03T01:49:20.281Z,66.04
2023-02-03T01:50:31.063Z,67.01
2023-02-03T01:51:34.822Z,66.74
2023-02-03T01:52:41.431Z,66.69
2023-02-03T01:53:44.838Z,66.31
2023-02-03T01:54:50.674Z,66.66
2023-02-03T01:55:53.854Z,66.41
2023-02-03T01:57:06.815Z,66.59
2023-02-03T01:58:22.856Z,66.65
2023-02-03T01:59:27.257Z,66.48
2023-02-03T02:00:30.723Z,67.08
2023-02-03T02:01:35.242Z,67.15
2023-02-03T02:02:38.261Z,67.15
2023-02-03T02:03:56.088Z,67.39
2023-02-03T02:05:07.357Z,67.98
2023-02-03T02:06:14.234Z,67.89
2023-02-03T02:07:17.763Z,67.67
2023-02-03T02:08:24.101Z,67.13
2023-02-03T02:09:28.068Z,66.76
2023-02-03T02:10:32.440Z,66.73
2023-02-03T02:11:35.407Z,66.60
2023-02-03T02:12:40.878Z,66.03
2023-02-03T02:13:46.151Z,65.45
2023-02-03T02:14:49.350Z,65.94
2023-02-03T02:16:12.413Z,65.73
2023-02-03T02:17:26.903Z,65.74
2023-02-03T02:18:48.220Z,65.47
2023-02-03T02:20:09.507Z,65.50
2023-02-03T02:21:34.122Z,65.71
2023-02-03T02:23:04.195Z,65.22
2023-02-03T02:24:37.135Z,65.55
2023-02-03T02:26:04.906Z,65.50
2023-02-03T02:27:13.702Z,65.47
2023-02-03T02:28:53.662Z,65.91
2023-02-03T02:30:18.621Z,66.49
2023-02-03T02:31:54.605Z,66.15
2023-02-03T02:33:33.734Z,66.48
2023-02-03T02:35:09.900Z,67.19
2023-02-03T02:36:35.328Z,67.17
2023-02-03T02:37:43.699Z,67.59
2023-02-03T02:39:03.906Z,67.28
2023-02-03T02:40:48.142Z,67.20
2023-02-03T02:42:05.514Z,67.24
2023-02-03T02:43:21.323Z,67.92
2023-02-03T02:44:30.661Z,67.64
2023-02-03T02:46:07.306Z,68.01
2023-02-03T02:47:27.923Z,68.46
2023-02-03T02:48:48.493Z,68.42
2023-02-03T02:50:01.198Z,68.58
2023-02-03T02:51:07.422Z,68.32
2023-02-03T02:52:14.340Z,68.44
2023-02-03T02:53:20.713Z,68.45
2023-02-03T02:54:27.847Z,68.56
2023-02-03T02:55:34.449Z,68.46
2023-02-03T02:56:40.227Z,68.42
2023-02-03T02:57:44.922Z,68.65
2023-02-03T02:58:51.101Z,68.90
2023-02-03T02:59:54.948Z,68.86
2023-02-03T03:00:58.783Z,68.34
2023-02-03T03:02:02.463Z,68.60
2023-02-03T03:03:24.837Z,68.30
2023-02-03T03:04:30.909Z,68.52
2023-02-03T03:05:34.741Z,68.29
2023-02-03T03:06:42.785Z,68.42
2023-02-03T03:07:52.967Z,67.81
2023-02-03T03:09:05.955Z,68.02
2023-02-03T03:10:14.443Z,68.01
2023-02-03T03:11:18.853Z,68.09
2023-02-03T03:12:27.893Z,68.32
2023-02-03T03:13:48.397Z,67.94
2023-02-03T03:14:59.031Z,67.70
2023-02-03T03:16:05.591Z,67.86
2023-02-03T03:17:12.022Z,67.21
2023-02-03T03:18:21.860Z,67.16
2023-02-03T03:19:32.722Z,67.50
2023-02-03T03:20:37.763Z,67.81
2023-02-03T03:21:53.995Z,66.74
2023-02-03T03:23:04.417Z,66.90
2023-02-03T03:24:23.185Z,66.72
2023-02-03T03:25:49.307Z,66.77
2023-02-03T03:27:18.438Z,67.01
2023-02-03T03:28:28.761Z,66.53
2023-02-03T03:29:35.453Z,66.34
2023-02-03T03:30:39.586Z,66.28
2023-02-03T03:31:43.524Z,66.48
2023-02-03T03:32:46.866Z,66.45
2023-02-03T03:33:50.098Z,66.19
2023-02-03T03:34:53.217Z,66.39
2023-02-03T03:36:08.631Z,66.63
2023-02-03T03:37:37.004Z,66.33
2023-02-03T03:38:47.393Z,66.67
2023-02-03T03:39:59.055Z,66.87
2023-02-03T03:41:19.620Z,67.40
2023-02-03T03:42:31.298Z,67.70
2023-02-03T03:43:40.228Z,67.98
2023-02-03T03:44:50.340Z,68.06
2023-02-03T03:46:13.686Z,67.90
2023-02-03T03:47:29.180Z,67.84
2023-02-03T03:48:38.251Z,67.57
2023-02-03T03:49:44.646Z,67.96
2023-02-03T03:50:53.492Z,67.56
2023-02-03T03:52:01.621Z,66.86
2023-02-03T03:53:07.728Z,67.07
2023-02-03T03:54:15.110Z,67.55
2023-02-03T03:55:20.945Z,67.15
2023-02-03T03:56:29.811Z,66.71
2023-02-03T03:57:40.260Z,66.61
2023-02-03T03:58:53.136Z,66.87
2023-02-03T04:00:02.362Z,66.84
2023-02-03T04:01:07.643Z,67.15
2023-02-03T04:02:13.543Z,66.96
2023-02-03T04:03:21.522Z,66.48
2023-02-03T04:04:26.198Z,66.61
2023-02-03T04:05:29.063Z,67.01
2023-02-03T04:06:32.069Z,67.26
2023-02-03T04:07:41.480Z,67.47
2023-02-03T04:08:44.518Z,66.90
2023-02-03T04:09:47.454Z,66.25
2023-02-03T04:10:50.685Z,66.19
2023-02-03T04:12:02.531Z,65.70
2023-02-03T04:13:07.551Z,65.87
2023-02-03T04:14:10.996Z,66.12
2023-02-03T04:15:14.185Z,66.41
2023-02-03T04:16:17.054Z,66.14
2023-02-03T04:17:20.641Z,65.81
2023-02-03T04:18:24.349Z,65.35
2023-02-03T04:19:27.921Z,65.18
2023-02-03T04:20:32.691Z,64.63
2023-02-03T04:21:35.631Z,64.99
2023-02-03T04:22:38.547Z,64.86
2023-02-03T04:23:41.465Z,64.76
2023-02-03T04:24:44.331Z,64.79
2023-02-03T04:25:47.383Z,64.84
2023-02-03T04:26:50.791Z,64.10
2023-02-03T04:27:53.805Z,64.01
2023-02-03T04:28:56.863Z,63.77
2023-02-03T04:29:59.832Z,63.44
2023-02-03T04:31:02.778Z,63.68
2023-02-03T04:32:05.866Z,63.50
2023-02-03T04:33:09.031Z,64.12
2023-02-03T04:34:12.108Z,63.96
2023-02-03T04:35:15.651Z,63.53
2023-02-03T04:36:18.629Z,63.31
2023-02-03T04:37:23.459Z,63.24
2023-02-03T04:38:26.525Z,62.44
2023-02-03T04:39:29.556Z,62.46
2023-02-03T04:40:34.730Z,62.53
2023-02-03T04:41:37.907Z,62.99
2023-02-03T04:42:41.851Z,63.23
2023-02-03T04:43:45.698Z,63.06
2023-02-03T04:44:49.103Z,62.56
2023-02-03T04:45:52.232Z,62.44
2023-02-03T04:46:55.282Z,62.52
2023-02-03T04:47:58.226Z,62.51
2023-02-03T04:49:01.187Z,62.88
2023-02-03T04:50:04.495Z,62.85
2023-02-03T04:51:08.939Z,62.59
2023-02-03T04:52:12.140Z,62.18
2023-02-03T04:53:16.079Z,62.66
2023-02-03T04:54:19.015Z,62.81
2023-02-03T04:55:22.037Z,62.86
2023-02-03T04:56:24.921Z,63.22
2023-02-03T04:57:27.814Z,62.90
2023-02-03T04:58:30.698Z,63.10
2023-02-03T04:59:33.580Z,63.11
2023-02-03T05:00:36.339Z,62.79
2023-02-03T05:01:39.300Z,62.77
2023-02-03T05:02:42.200Z,62.86
2023-02-03T05:03:45.212Z,63.16
2023-02-03T05:04:48.070Z,63.23
2023-02-03T05:05:51.371Z,62.90
2023-02-03T05:06:54.309Z,63.01
2023-02-03T05:07:57.460Z,61.85
2023-02-03T05:09:00.866Z,61.61
2023-02-03T05:10:03.938Z,61.33
2023-02-03T05:11:06.985Z,61.31
2023-02-03T05:12:09.910Z,61.72
2023-02-03T05:13:12.797Z,62.25
2023-02-03T05:14:15.760Z,62.35
2023-02-03T05:15:18.751Z,62.26
2023-02-03T05:16:21.930Z,62.16
2023-02-03T05:17:25.111Z,61.89
2023-02-03T05:18:28.105Z,62.04
2023-02-03T05:19:30.949Z,62.52
2023-02-03T05:20:34.017Z,62.66
2023-02-03T05:21:36.952Z,62.73
2023-02-03T05:22:40.152Z,62.69
2023-02-03T05:23:43.188Z,62.93
2023-02-03T05:24:46.534Z,63.29
2023-02-03T05:25:49.619Z,63.28
2023-02-03T05:26:52.392Z,63.39
2023-02-03T05:27:55.424Z,63.03
2023-02-03T05:28:58.265Z,63.34
2023-02-03T05:30:01.304Z,63.73
2023-02-03T05:31:08.242Z,63.17
2023-02-03T05:32:11.268Z,62.93
2023-02-03T05:33:17.025Z,62.67
2023-02-03T05:34:19.933Z,62.96
2023-02-03T05:35:22.879Z,62.73
2023-02-03T05:36:25.778Z,62.96
2023-02-03T05:37:28.752Z,63.16
2023-02-03T05:38:32.087Z,63.47
2023-02-03T05:39:35.201Z,63.79
2023-02-03T05:40:56.761Z,64.11
2023-02-03T05:41:59.706Z,64.17
2023-02-03T05:43:02.551Z,64.21
2023-02-03T05:44:05.701Z,64.31
2023-02-03T05:45:09.100Z,63.95
2023-02-03T05:46:12.257Z,63.74
2023-02-03T05:47:15.724Z,63.61
2023-02-03T05:48:18.650Z,64.29
2023-02-03T05:49:23.450Z,64.60
2023-02-03T05:50:28.198Z,64.17
2023-02-03T05:51:31.319Z,63.72
2023-02-03T05:52:34.435Z,64.37
2023-02-03T05:53:37.195Z,64.56
2023-02-03T05:54:39.926Z,64.45
2023-02-03T05:55:42.721Z,64.60
2023-02-03T05:56:49.305Z,64.71
2023-02-03T05:57:52.360Z,64.87
2023-02-03T05:58:55.250Z,64.85
2023-02-03T05:59:58.152Z,65.09
2023-02-03T06:01:01.108Z,65.31
2023-02-03T06:02:03.987Z,65.22
2023-02-03T06:03:07.355Z,64.98
2023-02-03T06:04:10.512Z,65.19
2023-02-03T06:05:13.702Z,65.96
2023-02-03T06:06:17.279Z,66.25
2023-02-03T06:07:20.215Z,66.31
2023-02-03T06:08:28.838Z,66.82
2023-02-03T06:09:31.579Z,67.33
2023-02-03T06:10:34.793Z,67.29
2023-02-03T06:11:37.738Z,67.44
2023-02-03T06:12:40.651Z,67.32
2023-02-03T06:13:44.054Z,67.37
2023-02-03T06:14:50.298Z,67.55
2023-02-03T06:15:53.249Z,67.69
2023-02-03T06:16:57.448Z,67.35
2023-02-03T06:18:00.334Z,67.67
2023-02-03T06:19:03.509Z,67.47
2023-02-03T06:20:09.339Z,67.63
2023-02-03T06:21:12.214Z,67.89
2023-02-03T06:22:15.154Z,67.94
2023-02-03T06:23:19.331Z,67.96
2023-02-03T06:24:22.187Z,66.03
2023-02-03T06:25:28.398Z,65.56
2023-02-03T06:26:31.457Z,66.12
2023-02-03T06:27:34.515Z,65.89
2023-02-03T06:28:38.633Z,65.69
2023-02-03T06:29:42.350Z,65.51
2023-02-03T06:30:45.250Z,65.34
2023-02-03T06:31:48.304Z,65.09
2023-02-03T06:32:51.247Z,64.87
2023-02-03T06:33:54.146Z,65.11
2023-02-03T06:34:57.035Z,65.65
2023-02-03T06:36:00.430Z,66.22
2023-02-03T06:37:03.363Z,66.47
2023-02-03T06:38:06.260Z,66.57
2023-02-03T06:39:09.040Z,66.20
2023-02-03T06:40:12.882Z,66.46
2023-02-03T06:41:16.462Z,66.88
2023-02-03T06:42:20.356Z,67.04
2023-02-03T06:43:23.128Z,67.03
2023-02-03T06:44:27.075Z,67.25
2023-02-03T06:45:33.168Z,67.68
2023-02-03T06:46:36.022Z,67.65
2023-02-03T06:47:46.076Z,67.78
2023-02-03T06:48:48.882Z,67.83
2023-02-03T06:49:52.487Z,67.81
2023-02-03T06:50:55.877Z,68.04
2023-02-03T06:51:58.819Z,68.14
2023-02-03T06:53:01.714Z,68.18
2023-02-03T06:54:05.218Z,67.89
2023-02-03T06:55:08.526Z,68.11
2023-02-03T06:56:12.343Z,68.10
2023-02-03T06:57:15.443Z,68.26
2023-02-03T06:58:18.376Z,67.69
2023-02-03T06:59:21.315Z,67.63
2023-02-03T07:00:24.682Z,67.48
2023-02-03T07:01:27.733Z,66.91
2023-02-03T07:02:31.169Z,66.81
2023-02-03T07:03:34.113Z,66.96
2023-02-03T07:04:39.078Z,66.04
2023-02-03T07:05:45.308Z,65.28
2023-02-03T07:06:48.093Z,65.66
2023-02-03T07:07:52.101Z,65.61
2023-02-03T07:09:00.672Z,65.56
2023-02-03T07:10:04.732Z,65.64
2023-02-03T07:11:07.947Z,65.97
2023-02-03T07:12:10.914Z,65.59
2023-02-03T07:13:13.826Z,65.59
2023-02-03T07:14:16.857Z,65.56
2023-02-03T07:15:19.827Z,65.58
2023-02-03T07:16:22.829Z,65.37
2023-02-03T07:17:25.856Z,65.44
2023-02-03T07:18:46.222Z,65.59
2023-02-03T07:19:50.309Z,65.57
2023-02-03T07:20:53.492Z,65.72
2023-02-03T07:21:56.516Z,65.71
2023-02-03T07:22:59.536Z,66.06
2023-02-03T07:24:03.311Z,65.86
2023-02-03T07:25:06.517Z,65.61
2023-02-03T07:26:10.842Z,65.55
2023-02-03T07:27:13.844Z,66.20
2023-02-03T07:28:16.914Z,66.66
2023-02-03T07:29:19.925Z,66.78
2023-02-03T07:30:23.202Z,66.93
2023-02-03T07:31:26.507Z,67.41
2023-02-03T07:32:29.467Z,67.90
2023-02-03T07:33:32.460Z,67.65
2023-02-03T07:34:35.279Z,67.73
2023-02-03T07:35:38.262Z,68.01
2023-02-03T07:36:41.711Z,67.91
2023-02-03T07:37:45.291Z,68.17
2023-02-03T07:38:48.365Z,68.33
2023-02-03T07:39:51.242Z,68.57
2023-02-03T07:40:54.482Z,68.73
2023-02-03T07:41:57.413Z,68.78
2023-02-03T07:43:00.344Z,69.20
2023-02-03T07:44:03.823Z,69.44
2023-02-03T07:45:07.278Z,69.82
2023-02-03T07:46:10.625Z,70.24
2023-02-03T07:47:13.625Z,70.67
2023-02-03T07:48:17.058Z,71.02
2023-02-03T07:49:20.437Z,71.53
2023-02-03T07:50:23.506Z,71.73
2023-02-03T07:51:26.933Z,71.61
2023-02-03T07:52:29.917Z,71.33
2023-02-03T07:53:33.337Z,71.46
2023-02-03T07:54:38.204Z,71.47
2023-02-03T07:55:41.092Z,71.49
2023-02-03T07:56:44.055Z,71.46
2023-02-03T07:57:47.273Z,71.97
2023-02-03T07:58:53.226Z,72.44
2023-02-03T07:59:56.304Z,72.53
2023-02-03T08:00:59.817Z,72.61
2023-02-03T08:02:02.705Z,72.63
2023-02-03T08:03:05.873Z,72.99
2023-02-03T08:04:09.030Z,73.19
2023-02-03T08:05:12.966Z,73.86
2023-02-03T08:06:16.880Z,74.38
2023-02-03T08:07:19.707Z,74.36
2023-02-03T08:08:22.934Z,74.81
2023-02-03T08:09:25.921Z,75.06
2023-02-03T08:10:29.131Z,75.06
2023-02-03T08:11:32.809Z,75.08
2023-02-03T08:12:36.031Z,75.05
2023-02-03T08:13:38.938Z,75.38
2023-02-03T08:14:41.799Z,75.01
2023-02-03T08:15:44.664Z,74.62
2023-02-03T08:16:47.792Z,74.67
2023-02-03T08:17:51.135Z,74.84
2023-02-03T08:18:53.966Z,74.50
2023-02-03T08:19:57.016Z,73.26
2023-02-03T08:21:00.951Z,73.12
2023-02-03T08:22:03.804Z,73.24
2023-02-03T08:23:06.898Z,73.11
2023-02-03T08:24:09.828Z,72.93
2023-02-03T08:25:13.489Z,72.96
2023-02-03T08:26:16.405Z,73.08
2023-02-03T08:27:21.708Z,72.33
2023-02-03T08:28:25.170Z,72.65
2023-02-03T08:29:28.349Z,73.17
2023-02-03T08:30:31.880Z,73.26
2023-02-03T08:31:35.067Z,73.10
2023-02-03T08:32:38.033Z,73.15
2023-02-03T08:33:40.932Z,73.18
2023-02-03T08:34:49.969Z,73.01
2023-02-03T08:35:52.886Z,73.13
2023-02-03T08:36:55.884Z,73.05
2023-02-03T08:37:58.906Z,73.18
2023-02-03T08:39:05.405Z,73.35
2023-02-03T08:40:08.874Z,72.89
2023-02-03T08:41:15.399Z,72.86
2023-02-03T08:42:18.911Z,73.47
2023-02-03T08:43:21.725Z,73.65
2023-02-03T08:44:24.941Z,73.83
2023-02-03T08:45:28.208Z,74.02
2023-02-03T08:46:31.581Z,74.02
2023-02-03T08:47:37.079Z,73.89
2023-02-03T08:48:40.764Z,74.16
2023-02-03T08:49:44.165Z,74.33
2023-02-03T08:50:53.204Z,74.54
2023-02-03T08:51:57.484Z,75.31
2023-02-03T08:53:00.386Z,75.78
2023-02-03T08:55:12.786Z,76.36
2023-02-03T08:56:15.717Z,76.92
2023-02-03T08:57:18.650Z,77.00
2023-02-03T08:58:21.718Z,77.80
2023-02-03T08:59:25.269Z,78.08
2023-02-03T09:00:28.807Z,78.37
2023-02-03T09:01:32.476Z,78.89
2023-02-03T09:02:35.632Z,79.15
2023-02-03T09:03:40.349Z,79.58
2023-02-03T09:04:44.073Z,80.26
2023-02-03T09:05:47.231Z,80.48
2023-02-03T09:06:55.145Z,80.78
2023-02-03T09:07:58.510Z,80.73
2023-02-03T09:09:01.531Z,80.78
2023-02-03T09:10:04.810Z,81.32
2023-02-03T09:11:12.478Z,82.19
2023-02-03T09:12:15.662Z,82.80
2023-02-03T09:13:18.534Z,83.06
2023-02-03T09:14:21.537Z,83.30
2023-02-03T09:15:24.979Z,83.62
2023-02-03T09:16:28.102Z,83.67
2023-02-03T09:17:31.274Z,84.10
2023-02-03T09:18:34.522Z,84.87
2023-02-03T09:19:37.652Z,85.36
2023-02-03T09:20:40.784Z,85.51
2023-02-03T09:21:48.290Z,85.99
2023-02-03T09:22:51.497Z,86.00
2023-02-03T09:23:54.825Z,85.69
2023-02-03T09:24:58.294Z,86.36
2023-02-03T09:26:05.433Z,86.50
2023-02-03T09:27:08.371Z,86.76
2023-02-03T09:28:11.680Z,87.26
2023-02-03T09:29:14.743Z,87.66
2023-02-03T09:30:18.030Z,88.06
2023-02-03T09:31:20.925Z,88.03
2023-02-03T09:32:23.921Z,88.13
2023-02-03T09:33:27.319Z,88.37
2023-02-03T09:34:30.232Z,88.69
2023-02-03T09:35:33.154Z,88.93
2023-02-03T09:36:36.198Z,88.75
2023-02-03T09:37:39.272Z,88.87
2023-02-03T09:38:42.546Z,88.86
2023-02-03T09:39:45.390Z,89.21
2023-02-03T09:41:27.324Z,89.60
2023-02-03T09:42:57.087Z,89.88
2023-02-03T09:44:35.508Z,90.15
2023-02-03T09:45:38.588Z,90.35
2023-02-03T09:46:53.584Z,90.64
2023-02-03T09:48:04.316Z,90.90
2023-02-03T09:49:32.851Z,90.92
2023-02-03T09:50:39.147Z,90.91
2023-02-03T09:51:54.778Z,91.13
2023-02-03T09:53:02.770Z,91.26
2023-02-03T09:54:16.814Z,91.39
2023-02-03T09:55:37.589Z,91.27
2023-02-03T09:56:41.434Z,91.27
2023-02-03T09:57:57.411Z,91.61
2023-02-03T09:59:01.234Z,91.83
2023-02-03T10:00:17.564Z,91.72
2023-02-03T10:01:22.510Z,91.80
2023-02-03T10:02:49.694Z,91.81
2023-02-03T10:04:04.228Z,91.86
2023-02-03T10:05:29.106Z,92.02
2023-02-03T10:06:38.678Z,92.06
2023-02-03T10:07:54.005Z,91.96
2023-02-03T10:09:27.683Z,91.81
2023-02-03T10:11:10.068Z,91.79
2023-02-03T10:12:33.673Z,91.88
2023-02-03T10:14:01.438Z,92.18
2023-02-03T10:15:44.942Z,92.30
2023-02-03T10:17:16.017Z,92.24
2023-02-03T10:18:28.817Z,92.21
2023-02-03T10:19:43.968Z,92.23
2023-02-03T10:20:49.082Z,92.40
2023-02-03T10:21:57.793Z,92.32
2023-02-03T10:23:07.074Z,92.32
2023-02-03T10:24:19.558Z,92.62
2023-02-03T10:25:32.312Z,92.91
2023-02-03T10:26:35.591Z,92.84
2023-02-03T10:27:38.968Z,92.83
2023-02-03T10:29:33.190Z,92.92
2023-02-03T10:30:46.543Z,93.00
2023-02-03T10:31:49.993Z,93.18
2023-02-03T10:33:25.291Z,93.45
2023-02-03T10:34:28.467Z,93.67
2023-02-03T10:36:01.019Z,93.76
2023-02-03T10:37:30.021Z,93.81
2023-02-03T10:38:33.546Z,94.08
2023-02-03T10:39:48.016Z,94.28
2023-02-03T10:40:51.223Z,94.39
2023-02-03T10:41:54.622Z,94.43
2023-02-03T10:43:16.054Z,94.49
2023-02-03T10:44:19.040Z,94.57
2023-02-03T10:45:22.057Z,94.51
2023-02-03T10:46:34.752Z,94.39
2023-02-03T10:47:44.646Z,94.45
2023-02-03T10:48:49.630Z,94.66
2023-02-03T10:49:55.637Z,94.69
2023-02-03T10:50:59.112Z,94.61
2023-02-03T10:52:05.182Z,94.62
2023-02-03T10:53:23.893Z,94.74
2023-02-03T10:54:32.414Z,94.83
2023-02-03T10:55:35.544Z,95.25
2023-02-03T10:56:41.052Z,95.24
2023-02-03T10:57:44.226Z,94.94
2023-02-03T10:58:50.765Z,95.14
2023-02-03T11:00:22.492Z,95.32
2023-02-03T11:01:28.655Z,95.39
2023-02-03T11:02:32.172Z,95.70
2023-02-03T11:03:35.493Z,95.97
2023-02-03T11:04:38.625Z,96.25
2023-02-03T11:05:43.347Z,96.32
2023-02-03T11:06:58.980Z,96.32
2023-02-03T11:08:02.276Z,96.21
2023-02-03T11:09:25.397Z,96.28
2023-02-03T11:10:40.962Z,96.12
2023-02-03T11:11:43.940Z,96.30
2023-02-03T11:12:50.235Z,96.43
2023-02-03T11:14:17.218Z,96.39
2023-02-03T11:15:20.201Z,95.84
2023-02-03T11:16:27.001Z,95.77
2023-02-03T11:17:33.227Z,96.19
2023-02-03T11:18:41.684Z,96.47
2023-02-03T11:19:49.836Z,96.53
2023-02-03T11:20:53.300Z,96.46
2023-02-03T11:21:57.144Z,96.68
2023-02-03T11:23:04.566Z,96.70
2023-02-03T11:24:26.289Z,96.57
2023-02-03T11:25:34.399Z,96.72
2023-02-03T11:26:45.533Z,97.03
2023-02-03T11:27:48.596Z,96.50
2023-02-03T11:28:54.743Z,96.64
2023-02-03T11:30:31.097Z,96.99
2023-02-03T11:31:36.780Z,97.31
2023-02-03T11:32:43.071Z,97.56
2023-02-03T11:33:53.053Z,97.70
2023-02-03T11:35:01.049Z,97.95
2023-02-03T11:36:11.822Z,98.07
2023-02-03T11:37:27.357Z,98.13
2023-02-03T11:38:33.229Z,98.17
2023-02-03T11:39:36.480Z,98.22
2023-02-03T11:40:41.536Z,98.10
2023-02-03T11:41:45.489Z,97.98
2023-02-03T11:42:51.135Z,97.80
2023-02-03T11:43:56.468Z,97.77
2023-02-03T11:45:18.023Z,97.88
2023-02-03T11:46:21.138Z,98.06
2023-02-03T11:47:24.583Z,97.88
2023-02-03T11:48:38.202Z,97.71
2023-02-03T11:50:03.816Z,97.51
2023-02-03T11:51:45.725Z,97.57
2023-02-03T11:53:00.600Z,97.83
2023-02-03T11:54:14.614Z,97.96
2023-02-03T11:55:48.939Z,97.78
2023-02-03T11:57:01.885Z,97.67
2023-02-03T11:58:24.566Z,97.65
2023-02-03T12:00:13.741Z,97.72
2023-02-03T12:01:54.171Z,97.20
2023-02-03T12:03:18.485Z,97.29
2023-02-03T12:04:43.405Z,97.13
2023-02-03T12:05:51.592Z,97.20
2023-02-03T12:07:16.138Z,97.23
2023-02-03T12:08:46.710Z,97.22
2023-02-03T12:10:33.778Z,97.33
2023-02-03T12:11:36.855Z,96.71
2023-02-03T12:12:52.495Z,96.97
2023-02-03T12:14:11.266Z,97.08
2023-02-03T12:15:41.582Z,97.05
2023-02-03T12:17:22.268Z,97.20
2023-02-03T12:18:32.792Z,96.89
2023-02-03T12:20:16.106Z,97.04
2023-02-03T12:21:45.710Z,97.21
2023-02-03T12:23:15.435Z,97.22
2023-02-03T12:24:48.468Z,97.35
2023-02-03T12:26:02.876Z,97.77
2023-02-03T12:27:22.506Z,97.71
2023-02-03T12:29:01.472Z,97.75
2023-02-03T12:30:09.583Z,97.94
2023-02-03T12:31:30.630Z,98.13
2023-02-03T12:32:51.286Z,98.29
2023-02-03T12:34:17.905Z,98.31
2023-02-03T12:35:32.395Z,98.25
2023-02-03T12:36:53.859Z,98.34
2023-02-03T12:38:04.444Z,98.28
2023-02-03T12:39:21.839Z,98.23
2023-02-03T12:40:49.274Z,98.35
2023-02-03T12:42:01.474Z,98.26
2023-02-03T12:43:16.576Z,98.18
2023-02-03T12:44:26.071Z,98.31
2023-02-03T12:45:33.119Z,98.29
2023-02-03T12:46:41.582Z,98.42
2023-02-03T12:48:02.767Z,98.39
2023-02-03T12:49:05.640Z,98.27
2023-02-03T12:50:22.940Z,98.39
2023-02-03T12:51:35.246Z,98.46
2023-02-03T12:52:42.049Z,98.40
2023-02-03T12:53:53.565Z,98.60
2023-02-03T12:55:26.909Z,98.55
2023-02-03T12:56:41.294Z,98.70
2023-02-03T12:58:23.347Z,98.75
2023-02-03T12:59:30.356Z,98.57
2023-02-03T13:00:39.361Z,98.76
2023-02-03T13:01:52.621Z,98.84
2023-02-03T13:03:11.150Z,98.80
2023-02-03T13:04:41.957Z,98.87
2023-02-03T13:06:05.512Z,98.83
2023-02-03T13:07:31.317Z,98.99
2023-02-03T13:08:43.595Z,98.95
2023-02-03T13:10:04.048Z,99.12
2023-02-03T13:11:24.957Z,99.14
2023-02-03T13:12:34.450Z,99.02
2023-02-03T13:13:46.788Z,99.08
2023-02-03T13:14:59.289Z,99.29
2023-02-03T13:16:08.184Z,99.28
2023-02-03T13:17:11.363Z,99.35
2023-02-03T13:18:29.803Z,99.57
2023-02-03T13:19:47.117Z,99.74
2023-02-03T13:20:50.586Z,99.87
2023-02-03T13:21:53.634Z,99.96
2023-02-03T13:22:56.966Z,100.00
2023-02-03T13:23:59.978Z,100.00
2023-02-03T13:25:08.394Z,100.00
2023-02-03T13:26:35.445Z,99.90
2023-02-03T13:27:50.677Z,99.86
2023-02-03T13:28:54.041Z,99.87
2023-02-03T13:30:09.409Z,99.96
2023-02-03T13:31:24.500Z,99.99
2023-02-03T13:32:46.663Z,100.00
2023-02-03T13:33:59.187Z,100.00
2023-02-03T13:35:05.117Z,100.00
2023-02-03T13:36:09.994Z,100.00
2023-02-03T13:37:19.794Z,100.00
2023-02-03T13:38:29.472Z,100.00
2023-02-03T13:39:50.583Z,99.98
2023-02-03T13:41:22.691Z,100.00
2023-02-03T13:42:29.455Z,100.00
2023-02-03T13:43:38.959Z,100.00
2023-02-03T13:44:45.658Z,100.00
2023-02-03T13:45:52.373Z,100.00
2023-02-03T13:46:58.367Z,100.00
2023-02-03T13:48:14.547Z,100.00
2023-02-03T13:49:30.399Z,100.00
2023-02-03T13:50:33.939Z,100.00
2023-02-03T13:51:43.719Z,100.00
2023-02-03T13:53:09.858Z,100.00
2023-02-03T13:54:30.916Z,100.00
2023-02-03T13:56:03.157Z,100.00
2023-02-03T13:57:26.205Z,100.00
2023-02-03T13:58:34.961Z,100.00
2023-02-03T13:59:37.868Z,100.00
2023-02-03T14:00:44.009Z,100.00
2023-02-03T14:01:47.399Z,100.00
2023-02-03T14:02:55.204Z,100.00
2023-02-03T14:03:58.877Z,100.00
2023-02-03T14:05:02.249Z,100.00
2023-02-03T14:06:12.209Z,100.00
2023-02-03T14:07:25.171Z,100.00
2023-02-03T14:08:28.186Z,100.00
2023-02-03T14:09:31.122Z,100.00
2023-02-03T14:10:34.209Z,100.00
2023-02-03T14:11:38.023Z,100.00
2023-02-03T14:12:50.256Z,100.00
2023-02-03T14:13:57.246Z,100.00
2023-02-03T14:15:21.978Z,100.00
2023-02-03T14:16:25.963Z,100.00
2023-02-03T14:17:40.672Z,100.00
2023-02-03T14:18:46.976Z,100.00
2023-02-03T14:19:50.112Z,100.00
2023-02-03T14:21:10.581Z,100.00
2023-02-03T14:22:18.550Z,100.00
2023-02-03T14:23:27.690Z,100.00
2023-02-03T14:24:33.610Z,100.00
2023-02-03T14:26:00.413Z,100.00
2023-02-03T14:27:06.874Z,100.00
2023-02-03T14:28:14.845Z,100.00
2023-02-03T14:29:35.297Z,100.00
2023-02-03T14:31:05.930Z,100.00
2023-02-03T14:32:12.919Z,100.00
2023-02-03T14:33:15.928Z,100.00
2023-02-03T14:34:19.023Z,100.00
2023-02-03T14:35:32.119Z,100.00
2023-02-03T14:36:46.375Z,100.00
2023-02-03T14:37:55.721Z,100.00
2023-02-03T14:39:03.285Z,100.00